createdAt,value
2022-12-18T00:00:17.740Z,1013.1
2022-12-18T00:02:17.831Z,1013.1
2022-12-18T00:04:19.062Z,1013.1
2022-12-18T00:06:17.859Z,1013.2
2022-12-18T00:08:17.840Z,1013.2
2022-12-18T00:10:18.769Z,1013.3
2022-12-18T00:14:17.821Z,1013.3
2022-12-18T00:16:17.792Z,1013.3
2022-12-18T00:18:20.623Z,1013.2
2022-12-18T00:20:17.726Z,1013.2
2022-12-18T00:22:17.713Z,1013.3
2022-12-18T00:24:18.063Z,1013.3
2022-12-18T00:26:17.739Z,1013.4
2022-12-18T00:27:39.458Z,1013.4
2022-12-18T00:28:17.700Z,1013.4
2022-12-18T00:30:20.327Z,1013.5
2022-12-18T00:33:35.772Z,1013.5
2022-12-18T00:34:06.532Z,1013.5
2022-12-18T00:36:07.909Z,1013.5
2022-12-18T00:38:06.454Z,1013.5
2022-12-18T00:40:06.463Z,1013.5
2022-12-18T00:42:07.842Z,1013.5
2022-12-18T00:44:06.466Z,1013.4
2022-12-18T00:46:06.543Z,1013.5
2022-12-18T00:48:06.545Z,1013.5
2022-12-18T00:50:06.443Z,1013.5
2022-12-18T00:52:06.685Z,1013.5
2022-12-18T00:54:17.433Z,1013.5
2022-12-18T00:56:10.611Z,1013.5
2022-12-18T00:58:09.044Z,1013.6
2022-12-18T01:00:06.492Z,1013.6
2022-12-18T01:02:06.643Z,1013.6
2022-12-18T01:04:10.826Z,1013.6
2022-12-18T01:06:07.905Z,1013.7
2022-12-18T01:08:14.313Z,1013.7
2022-12-18T01:10:07.912Z,1013.6
2022-12-18T01:12:06.396Z,1013.6
2022-12-18T01:14:06.412Z,1013.7
2022-12-18T01:16:06.397Z,1013.7
2022-12-18T01:18:06.414Z,1013.6
2022-12-18T01:20:07.680Z,1013.6
2022-12-18T01:22:06.473Z,1013.6
2022-12-18T01:24:06.488Z,1013.7
2022-12-18T01:26:06.466Z,1013.7
2022-12-18T01:28:06.426Z,1013.8
2022-12-18T01:30:07.903Z,1013.8
2022-12-18T01:32:06.406Z,1013.9
2022-12-18T01:34:06.387Z,1013.9
2022-12-18T01:36:06.395Z,1013.9
2022-12-18T01:38:06.548Z,1014
2022-12-18T01:40:06.326Z,1014
2022-12-18T01:42:09.237Z,1014.1
2022-12-18T01:44:06.373Z,1014.2
2022-12-18T01:46:06.451Z,1014.2
2022-12-18T01:48:06.471Z,1014.2
2022-12-18T01:50:08.873Z,1014.2
2022-12-18T01:52:06.345Z,1014.2
2022-12-18T01:54:06.423Z,1014.3
2022-12-18T01:56:06.405Z,1014.3
2022-12-18T01:58:06.424Z,1014.4
2022-12-18T02:00:10.904Z,1014.4
2022-12-18T02:02:09.551Z,1014.4
2022-12-18T02:04:06.347Z,1014.5
2022-12-18T02:06:06.536Z,1014.5
2022-12-18T02:08:06.391Z,1014.5
2022-12-18T02:10:06.386Z,1014.4
2022-12-18T02:12:07.648Z,1014.4
2022-12-18T02:14:06.419Z,1014.4
2022-12-18T02:16:07.505Z,1014.5
2022-12-18T02:18:06.461Z,1014.5
2022-12-18T02:20:06.323Z,1014.5
2022-12-18T02:22:07.539Z,1014.6
2022-12-18T02:24:07.665Z,1014.6
2022-12-18T02:26:06.366Z,1014.6
2022-12-18T02:26:41.613Z,1014.6
2022-12-18T02:28:07.801Z,1014.6
2022-12-18T02:30:17.537Z,1014.6
2022-12-18T02:30:59.559Z,1014.6
2022-12-18T02:32:10.765Z,1014.5
2022-12-18T02:34:06.355Z,1014.6
2022-12-18T02:36:06.341Z,1014.6
2022-12-18T02:38:06.265Z,1014.6
2022-12-18T02:40:08.349Z,1014.5
2022-12-18T02:42:06.315Z,1014.5
2022-12-18T02:44:06.229Z,1014.4
2022-12-18T02:46:06.286Z,1014.4
2022-12-18T02:48:06.303Z,1014.4
2022-12-18T02:50:06.251Z,1014.4
2022-12-18T02:52:07.437Z,1014.4
2022-12-18T02:54:06.323Z,1014.4
2022-12-18T02:56:06.233Z,1014.4
2022-12-18T02:58:06.343Z,1014.4
2022-12-18T03:00:07.612Z,1014.3
2022-12-18T03:02:06.382Z,1014.3
2022-12-18T03:04:06.428Z,1014.3
2022-12-18T03:06:06.377Z,1014.3
2022-12-18T03:08:10.672Z,1014.3
2022-12-18T03:10:06.279Z,1014.3
2022-12-18T03:12:06.340Z,1014.3
2022-12-18T03:14:06.278Z,1014.3
2022-12-18T03:16:06.253Z,1014.3
2022-12-18T03:18:06.269Z,1014.3
2022-12-18T03:20:06.233Z,1014.3
2022-12-18T03:22:06.267Z,1014.3
2022-12-18T03:24:06.279Z,1014.3
2022-12-18T03:26:07.755Z,1014.3
2022-12-18T03:28:06.293Z,1014.3
2022-12-18T03:30:06.253Z,1014.4
2022-12-18T03:32:06.239Z,1014.4
2022-12-18T03:34:06.309Z,1014.4
2022-12-18T03:36:06.263Z,1014.4
2022-12-18T03:38:08.877Z,1014.4
2022-12-18T03:40:06.343Z,1014.3
2022-12-18T03:42:06.243Z,1014.3
2022-12-18T03:44:06.295Z,1014.3
2022-12-18T03:46:07.737Z,1014.3
2022-12-18T03:48:06.252Z,1014.3
2022-12-18T03:50:11.073Z,1014.3
2022-12-18T03:52:06.211Z,1014.3
2022-12-18T03:54:06.355Z,1014.3
2022-12-18T03:56:06.301Z,1014.4
2022-12-18T03:58:06.330Z,1014.4
2022-12-18T04:00:06.307Z,1014.4
2022-12-18T04:02:06.410Z,1014.3
2022-12-18T04:04:06.300Z,1014.3
2022-12-18T04:06:06.258Z,1014.3
2022-12-18T04:08:16.914Z,1014.4
2022-12-18T04:10:16.293Z,1014.4
2022-12-18T04:12:06.341Z,1014.4
2022-12-18T04:14:10.841Z,1014.4
2022-12-18T04:16:06.400Z,1014.4
2022-12-18T04:18:10.598Z,1014.3
2022-12-18T04:20:06.313Z,1014.3
2022-12-18T04:22:07.303Z,1014.3
2022-12-18T04:24:06.222Z,1014.2
2022-12-18T04:26:06.230Z,1014.2
2022-12-18T04:28:06.188Z,1014.2
2022-12-18T04:30:07.270Z,1014.2
2022-12-18T04:32:07.180Z,1014.2
2022-12-18T04:34:13.646Z,1014.2
2022-12-18T04:36:06.228Z,1014.2
2022-12-18T04:38:06.289Z,1014.1
2022-12-18T04:38:41.735Z,1014.1
2022-12-18T04:40:06.210Z,1014.1
2022-12-18T04:42:17.791Z,1014
2022-12-18T04:44:10.642Z,1014
2022-12-18T04:46:06.132Z,1013.9
2022-12-18T04:48:06.155Z,1013.8
2022-12-18T04:50:06.123Z,1013.8
2022-12-18T04:52:08.910Z,1013.7
2022-12-18T04:54:06.511Z,1013.7
2022-12-18T04:56:06.806Z,1013.7
2022-12-18T04:58:06.115Z,1013.7
2022-12-18T05:00:06.165Z,1013.6
2022-12-18T05:02:06.172Z,1013.6
2022-12-18T05:04:06.159Z,1013.6
2022-12-18T05:06:06.213Z,1013.6
2022-12-18T05:08:06.129Z,1013.6
2022-12-18T05:10:06.127Z,1013.6
2022-12-18T05:12:06.089Z,1013.6
2022-12-18T05:14:06.096Z,1013.7
2022-12-18T05:16:06.166Z,1013.7
2022-12-18T05:18:06.081Z,1013.7
2022-12-18T05:20:06.073Z,1013.7
2022-12-18T05:22:06.083Z,1013.7
2022-12-18T05:24:06.119Z,1013.7
2022-12-18T05:26:06.085Z,1013.7
2022-12-18T05:28:06.075Z,1013.7
2022-12-18T05:30:06.099Z,1013.7
2022-12-18T05:32:07.346Z,1013.7
2022-12-18T05:34:06.153Z,1013.8
2022-12-18T05:36:07.167Z,1013.8
2022-12-18T05:38:06.103Z,1013.8
2022-12-18T05:40:06.227Z,1013.8
2022-12-18T05:42:06.152Z,1013.7
2022-12-18T05:44:06.173Z,1013.7
2022-12-18T05:46:06.297Z,1013.7
2022-12-18T05:48:08.528Z,1013.7
2022-12-18T05:50:07.524Z,1013.7
2022-12-18T05:52:06.082Z,1013.7
2022-12-18T05:54:08.747Z,1013.7
2022-12-18T05:56:13.773Z,1013.7
2022-12-18T05:58:06.179Z,1013.7
2022-12-18T06:00:06.051Z,1013.8
2022-12-18T06:02:10.335Z,1013.8
2022-12-18T06:04:06.264Z,1013.8
2022-12-18T06:06:06.078Z,1013.9
2022-12-18T06:08:06.030Z,1013.9
2022-12-18T06:10:06.149Z,1013.9
2022-12-18T06:12:06.046Z,1013.9
2022-12-18T06:14:06.026Z,1013.9
2022-12-18T06:16:06.046Z,1013.9
2022-12-18T06:18:06.046Z,1013.9
2022-12-18T06:20:07.144Z,1013.9
2022-12-18T06:22:06.097Z,1013.9
2022-12-18T06:24:12.023Z,1013.9
2022-12-18T06:26:06.039Z,1013.9
2022-12-18T06:28:06.037Z,1013.9
2022-12-18T06:30:06.087Z,1013.9
2022-12-18T06:32:08.469Z,1013.9
2022-12-18T06:34:07.587Z,1013.9
2022-12-18T06:36:06.512Z,1013.9
2022-12-18T06:38:06.012Z,1013.8
2022-12-18T06:40:05.991Z,1013.9
2022-12-18T06:42:08.741Z,1013.9
2022-12-18T06:44:06.033Z,1013.9
2022-12-18T06:46:06.062Z,1013.9
2022-12-18T06:48:06.004Z,1014
2022-12-18T06:50:10.490Z,1014
2022-12-18T06:52:06.061Z,1014
2022-12-18T06:54:06.001Z,1014
2022-12-18T06:56:10.121Z,1014
2022-12-18T06:58:06.012Z,1014
2022-12-18T07:00:06.171Z,1013.9
2022-12-18T07:02:07.397Z,1013.9
2022-12-18T07:04:07.114Z,1014
2022-12-18T07:06:07.458Z,1014
2022-12-18T07:08:08.842Z,1014
2022-12-18T07:10:06.051Z,1014.1
2022-12-18T07:12:07.230Z,1014.1
2022-12-18T07:14:05.947Z,1014.1
2022-12-18T07:16:08.590Z,1014
2022-12-18T07:18:05.971Z,1014
2022-12-18T07:20:06.109Z,1014
2022-12-18T07:22:05.958Z,1014
2022-12-18T07:24:07.360Z,1014
2022-12-18T07:26:07.193Z,1014
2022-12-18T07:28:06.027Z,1014
2022-12-18T07:30:05.961Z,1014
2022-12-18T07:32:05.982Z,1014.1
2022-12-18T07:34:06.964Z,1014
2022-12-18T07:36:05.912Z,1014.1
2022-12-18T07:38:06.001Z,1014.1
2022-12-18T07:40:07.366Z,1014.1
2022-12-18T07:42:05.916Z,1014.1
2022-12-18T07:44:11.616Z,1014.1
2022-12-18T07:46:07.025Z,1014.1
2022-12-18T07:48:06.037Z,1014.1
2022-12-18T07:50:05.884Z,1014.1
2022-12-18T07:52:08.499Z,1014.1
2022-12-18T07:54:13.533Z,1014.1
2022-12-18T07:58:07.241Z,1014.1
2022-12-18T08:00:05.970Z,1014.1
2022-12-18T08:02:06.047Z,1014.1
2022-12-18T08:04:08.906Z,1014.1
2022-12-18T08:06:05.914Z,1014.2
2022-12-18T08:08:07.095Z,1014.2
2022-12-18T08:10:05.837Z,1014.1
2022-12-18T08:12:05.902Z,1014.1
2022-12-18T08:14:05.861Z,1014.1
2022-12-18T08:16:05.955Z,1014.1
2022-12-18T08:18:08.094Z,1014.1
2022-12-18T08:20:08.209Z,1014.1
2022-12-18T08:22:05.945Z,1014.1
2022-12-18T08:24:05.879Z,1014.1
2022-12-18T08:26:05.895Z,1014.1
2022-12-18T08:28:08.384Z,1014.1
2022-12-18T08:30:05.857Z,1014.1
2022-12-18T08:32:05.867Z,1014.1
2022-12-18T08:34:05.833Z,1014.1
2022-12-18T08:36:05.873Z,1014.1
2022-12-18T08:38:07.209Z,1014.1
2022-12-18T08:40:06.062Z,1014.1
2022-12-18T08:42:09.995Z,1014.1
2022-12-18T08:44:05.886Z,1014.1
2022-12-18T08:46:05.875Z,1014.1
2022-12-18T08:48:05.865Z,1014
2022-12-18T08:50:08.337Z,1014
2022-12-18T08:52:05.750Z,1013.9
2022-12-18T08:54:06.396Z,1014
2022-12-18T08:56:05.835Z,1013.9
2022-12-18T08:58:05.818Z,1013.9
2022-12-18T09:00:05.946Z,1013.9
2022-12-18T09:02:06.105Z,1013.9
2022-12-18T09:04:05.932Z,1014
2022-12-18T09:06:05.870Z,1014
2022-12-18T09:08:05.788Z,1014.1
2022-12-18T09:10:05.786Z,1014.1
2022-12-18T09:12:06.129Z,1014.1
2022-12-18T09:14:05.799Z,1014.1
2022-12-18T09:16:05.862Z,1014.1
2022-12-18T09:18:05.780Z,1014.1
2022-12-18T09:20:05.784Z,1014.1
2022-12-18T09:22:05.851Z,1014.2
2022-12-18T09:24:08.718Z,1014.1
2022-12-18T09:26:05.869Z,1014.1
2022-12-18T09:28:06.965Z,1014
2022-12-18T09:30:05.772Z,1014.1
2022-12-18T09:32:16.336Z,1014.1
2022-12-18T09:34:06.080Z,1014.1
2022-12-18T09:36:17.531Z,1014.1
2022-12-18T09:38:05.889Z,1014.2
2022-12-18T09:40:07.377Z,1014.2
2022-12-18T09:42:05.965Z,1014.2
2022-12-18T09:44:05.814Z,1014.3
2022-12-18T09:46:11.728Z,1014.3
2022-12-18T09:48:05.780Z,1014.3
2022-12-18T09:50:05.885Z,1014.3
2022-12-18T09:52:07.115Z,1014.3
2022-12-18T09:54:05.857Z,1014.3
2022-12-18T09:56:16.218Z,1014.2
2022-12-18T09:58:10.155Z,1014.3
2022-12-18T10:00:10.245Z,1014.2
2022-12-18T10:02:07.379Z,1014.2
2022-12-18T10:04:07.695Z,1014.2
2022-12-18T10:06:08.398Z,1014.3
2022-12-18T10:08:07.105Z,1014.3
2022-12-18T10:09:42.832Z,1014.3
2022-12-18T10:10:07.133Z,1014.3
2022-12-18T10:12:11.477Z,1014.3
2022-12-18T10:14:16.490Z,1014.3
2022-12-18T10:16:07.054Z,1014.3
2022-12-18T10:18:06.554Z,1014.3
2022-12-18T10:20:05.738Z,1014.3
2022-12-18T10:22:05.716Z,1014.3
2022-12-18T10:24:05.690Z,1014.3
2022-12-18T10:26:05.678Z,1014.4
2022-12-18T10:28:05.659Z,1014.4
2022-12-18T10:30:05.695Z,1014.4
2022-12-18T10:32:05.687Z,1014.5
2022-12-18T10:34:05.686Z,1014.6
2022-12-18T10:36:05.809Z,1014.6
2022-12-18T10:38:05.667Z,1014.6
2022-12-18T10:40:05.702Z,1014.6
2022-12-18T10:42:05.682Z,1014.7
2022-12-18T10:44:05.657Z,1014.7
2022-12-18T10:46:05.659Z,1014.7
2022-12-18T10:48:05.684Z,1014.7
2022-12-18T10:50:05.673Z,1014.7
2022-12-18T10:52:10.269Z,1014.8
2022-12-18T10:54:06.316Z,1014.8
2022-12-18T10:56:05.702Z,1014.8
2022-12-18T10:58:05.648Z,1014.8
2022-12-18T11:00:05.642Z,1014.9
2022-12-18T11:02:05.789Z,1014.9
2022-12-18T11:04:05.700Z,1014.9
2022-12-18T11:06:05.622Z,1015
2022-12-18T11:08:05.632Z,1015
2022-12-18T11:10:05.668Z,1015
2022-12-18T11:12:05.745Z,1015
2022-12-18T11:14:05.667Z,1015
2022-12-18T11:16:05.755Z,1015.1
2022-12-18T11:18:05.641Z,1015.1
2022-12-18T11:20:05.614Z,1015.1
2022-12-18T11:22:05.600Z,1015.2
2022-12-18T11:24:05.621Z,1015.1
2022-12-18T11:26:05.607Z,1015.1
2022-12-18T11:28:05.610Z,1015.2
2022-12-18T11:30:05.610Z,1015.2
2022-12-18T11:32:05.591Z,1015.2
2022-12-18T11:34:27.895Z,1015.1
2022-12-18T11:36:05.656Z,1015.1
2022-12-18T11:38:06.776Z,1015.1
2022-12-18T11:40:05.607Z,1015.1
2022-12-18T11:42:05.642Z,1015.2
2022-12-18T11:44:05.584Z,1015.2
2022-12-18T11:46:05.621Z,1015.3
2022-12-18T11:48:05.546Z,1015.3
2022-12-18T11:50:05.583Z,1015.3
2022-12-18T11:52:06.866Z,1015.3
2022-12-18T11:54:06.924Z,1015.4
2022-12-18T11:55:00.876Z,1015.4
2022-12-18T11:56:05.659Z,1015.4
2022-12-18T11:58:07.650Z,1015.5
2022-12-18T12:00:05.550Z,1015.5
2022-12-18T12:02:10.125Z,1015.5
2022-12-18T12:04:10.018Z,1015.5
2022-12-18T12:06:05.616Z,1015.6
2022-12-18T12:08:11.432Z,1015.6
2022-12-18T12:10:06.786Z,1015.5
2022-12-18T12:12:06.976Z,1015.6
2022-12-18T12:14:05.615Z,1015.7
2022-12-18T12:16:05.714Z,1015.7
2022-12-18T12:18:09.719Z,1015.8
2022-12-18T12:20:05.541Z,1015.8
2022-12-18T12:22:05.548Z,1015.8
2022-12-18T12:24:09.812Z,1015.8
2022-12-18T12:26:05.609Z,1015.8
2022-12-18T12:28:05.543Z,1015.8
2022-12-18T12:30:05.672Z,1015.8
2022-12-18T12:32:05.687Z,1015.8
2022-12-18T12:34:05.586Z,1015.9
2022-12-18T12:36:05.611Z,1015.9
2022-12-18T12:38:06.830Z,1016
2022-12-18T12:40:20.769Z,1016
2022-12-18T12:42:05.573Z,1016
2022-12-18T12:44:05.547Z,1016
2022-12-18T12:46:05.616Z,1016.1
2022-12-18T12:48:05.528Z,1016.1
2022-12-18T12:50:06.199Z,1016.2
2022-12-18T12:52:05.564Z,1016.2
2022-12-18T12:54:05.598Z,1016.2
2022-12-18T12:56:05.561Z,1016.2
2022-12-18T12:58:08.174Z,1016.3
2022-12-18T13:00:05.479Z,1016.3
2022-12-18T13:02:05.685Z,1016.3
2022-12-18T13:04:05.555Z,1016.3
2022-12-18T13:06:32.519Z,1016.4
2022-12-18T13:08:07.102Z,1016.4
2022-12-18T13:10:05.606Z,1016.4
2022-12-18T13:12:06.265Z,1016.5
2022-12-18T13:14:05.445Z,1016.5
2022-12-18T13:16:05.445Z,1016.5
2022-12-18T13:18:09.447Z,1016.5
2022-12-18T13:20:07.993Z,1016.6
2022-12-18T13:22:05.515Z,1016.6
2022-12-18T13:24:05.476Z,1016.6
2022-12-18T13:26:05.421Z,1016.6
2022-12-18T13:28:05.476Z,1016.6
2022-12-18T13:30:06.003Z,1016.7
2022-12-18T13:32:05.636Z,1016.7
2022-12-18T13:34:24.897Z,1016.8
2022-12-18T13:36:08.151Z,1016.8
2022-12-18T13:38:05.524Z,1016.9
2022-12-18T13:40:05.743Z,1016.9
2022-12-18T13:42:08.537Z,1016.9
2022-12-18T13:44:08.173Z,1016.9
2022-12-18T13:46:07.003Z,1017
2022-12-18T13:48:34.178Z,1017
2022-12-18T13:50:05.546Z,1017.1
2022-12-18T13:52:05.485Z,1017.1
2022-12-18T13:54:08.549Z,1017.1
2022-12-18T13:56:05.464Z,1017.1
2022-12-18T13:58:05.428Z,1017.1
2022-12-18T14:00:05.392Z,1017.2
2022-12-18T14:02:05.651Z,1017.2
2022-12-18T14:04:08.045Z,1017.3
2022-12-18T14:06:07.344Z,1017.3
2022-12-18T14:08:05.398Z,1017.4
2022-12-18T14:10:12.450Z,1017.5
2022-12-18T14:12:11.361Z,1017.5
2022-12-18T14:14:05.431Z,1017.5
2022-12-18T14:16:05.409Z,1017.4
2022-12-18T14:18:08.109Z,1017.5
2022-12-18T14:20:07.964Z,1017.5
2022-12-18T14:22:09.669Z,1017.5
2022-12-18T14:24:05.350Z,1017.5
2022-12-18T15:40:59.650Z,1017.7
2022-12-18T15:41:31.348Z,1017.6
2022-12-18T15:43:31.379Z,1017.7
2022-12-18T15:45:31.364Z,1017.6
2022-12-18T15:47:31.358Z,1017.6
2022-12-18T15:49:35.830Z,1017.7
2022-12-18T15:51:32.719Z,1017.6
2022-12-18T15:53:31.311Z,1017.7
2022-12-18T15:55:31.323Z,1017.6
2022-12-18T15:57:31.283Z,1017.7
2022-12-18T15:59:31.358Z,1017.6
2022-12-18T16:01:31.359Z,1017.6
2022-12-18T16:03:31.450Z,1017.5
2022-12-18T16:05:31.264Z,1017.4
2022-12-18T16:07:31.433Z,1017.4
2022-12-18T16:09:31.287Z,1017.4
2022-12-18T16:11:31.269Z,1017.5
2022-12-18T16:13:31.285Z,1017.4
2022-12-18T16:15:31.388Z,1017.4
2022-12-18T16:17:31.297Z,1017.4
2022-12-18T16:19:31.394Z,1017.3
2022-12-18T16:21:34.040Z,1017.4
2022-12-18T16:23:32.704Z,1017.3
2022-12-18T16:25:31.284Z,1017.3
2022-12-18T16:27:31.253Z,1017.2
2022-12-18T16:29:31.269Z,1017.2
2022-12-18T16:31:31.414Z,1017.2
2022-12-18T16:33:31.330Z,1017.3
2022-12-18T16:35:31.260Z,1017.2
2022-12-18T16:37:31.251Z,1017.3
2022-12-18T16:39:31.249Z,1017.2
2022-12-18T16:41:31.317Z,1017.3
2022-12-18T16:43:31.227Z,1017.2
2022-12-18T16:45:31.242Z,1017.2
2022-12-18T16:47:31.237Z,1017.2
2022-12-18T16:51:31.252Z,1017.2
2022-12-18T16:54:18.977Z,1017.1
2022-12-18T16:55:31.229Z,1017.1
2022-12-18T16:57:31.236Z,1017.1
2022-12-18T16:59:31.236Z,1017.1
2022-12-18T17:01:31.312Z,1017
2022-12-18T17:03:31.310Z,1017
2022-12-18T17:05:31.236Z,1017
2022-12-18T17:07:31.244Z,1017.1
2022-12-18T17:09:31.222Z,1017
2022-12-18T17:11:31.179Z,1017
2022-12-18T17:13:31.216Z,1017
2022-12-18T17:15:31.185Z,1017
2022-12-18T17:17:31.271Z,1017
2022-12-18T17:19:31.187Z,1017
2022-12-18T17:21:31.225Z,1017
2022-12-18T17:23:31.174Z,1017
2022-12-18T17:25:31.201Z,1017
2022-12-18T17:27:31.201Z,1017
2022-12-18T17:29:31.160Z,1017
2022-12-18T17:31:31.269Z,1017
2022-12-18T17:33:31.182Z,1016.9
2022-12-18T17:35:31.193Z,1017
2022-12-18T17:37:31.170Z,1017
2022-12-18T17:39:31.154Z,1017
2022-12-18T17:41:42.425Z,1017
2022-12-18T17:43:31.168Z,1017
2022-12-18T17:45:31.193Z,1017
2022-12-18T17:47:31.150Z,1017
2022-12-18T17:49:31.152Z,1016.9
2022-12-18T17:51:31.137Z,1016.9
2022-12-18T17:53:31.182Z,1016.9
2022-12-18T17:55:31.139Z,1016.9
2022-12-18T17:57:31.136Z,1016.9
2022-12-18T17:59:41.574Z,1016.9
2022-12-18T18:01:31.248Z,1017
2022-12-18T18:03:31.265Z,1017
2022-12-18T18:05:32.327Z,1016.9
2022-12-18T18:07:31.159Z,1016.9
2022-12-18T18:09:31.198Z,1016.8
2022-12-18T18:11:31.136Z,1016.9
2022-12-18T18:13:35.004Z,1016.9
2022-12-18T18:15:31.120Z,1016.9
2022-12-18T18:17:31.114Z,1016.9
2022-12-18T18:19:31.140Z,1016.9
2022-12-18T18:21:31.153Z,1016.9
2022-12-18T18:23:31.171Z,1016.9
2022-12-18T18:25:31.111Z,1016.9
2022-12-18T18:27:35.342Z,1016.9
2022-12-18T18:29:31.129Z,1016.9
2022-12-18T18:31:31.157Z,1016.9
2022-12-18T18:33:31.136Z,1016.9
2022-12-18T18:35:53.183Z,1016.8
2022-12-18T18:37:31.089Z,1016.9
2022-12-18T18:39:31.116Z,1016.9
2022-12-18T18:41:31.100Z,1016.9
2022-12-18T18:43:31.074Z,1017
2022-12-18T18:45:31.145Z,1017
2022-12-18T18:47:31.086Z,1016.9
2022-12-18T18:49:31.083Z,1017
2022-12-18T18:51:34.971Z,1017
2022-12-18T18:53:31.075Z,1017
2022-12-18T18:55:31.064Z,1017
2022-12-18T18:57:31.083Z,1017
2022-12-18T18:59:31.427Z,1017
2022-12-18T19:01:31.152Z,1017
2022-12-18T19:03:31.109Z,1017
2022-12-18T19:05:31.074Z,1017
2022-12-18T19:07:31.311Z,1017
2022-12-18T19:09:31.059Z,1017.1
2022-12-18T19:11:35.992Z,1017.1
2022-12-18T19:13:31.044Z,1017.1
2022-12-18T19:15:31.085Z,1017.2
2022-12-18T19:17:31.513Z,1017.2
2022-12-18T19:19:31.051Z,1017.2
2022-12-18T19:21:31.376Z,1017.3
2022-12-18T19:23:31.046Z,1017.3
2022-12-18T19:25:38.252Z,1017.3
2022-12-18T19:27:31.049Z,1017.3
2022-12-18T19:29:31.063Z,1017.4
2022-12-18T19:31:35.444Z,1017.4
2022-12-18T19:33:42.705Z,1017.4
2022-12-18T19:35:31.015Z,1017.5
2022-12-18T19:37:31.036Z,1017.5
2022-12-18T19:39:31.027Z,1017.5
2022-12-18T19:41:31.435Z,1017.5
2022-12-18T19:43:35.347Z,1017.6
2022-12-18T19:45:31.082Z,1017.6
2022-12-18T19:47:31.096Z,1017.6
2022-12-18T19:49:30.982Z,1017.7
2022-12-18T19:51:31.000Z,1017.7
2022-12-18T19:53:30.962Z,1017.7
2022-12-18T19:55:31.002Z,1017.8
2022-12-18T19:57:30.997Z,1017.8
2022-12-18T19:59:30.951Z,1017.8
2022-12-18T20:01:31.089Z,1017.9
2022-12-18T20:03:32.714Z,1017.9
2022-12-18T20:05:31.016Z,1018
2022-12-18T20:07:30.945Z,1018
2022-12-18T20:09:30.933Z,1018
2022-12-18T20:11:31.020Z,1018.1
2022-12-18T20:13:31.001Z,1018.1
2022-12-18T20:15:30.952Z,1018.2
2022-12-18T20:17:30.979Z,1018.2
2022-12-18T20:19:31.046Z,1018.2
2022-12-18T20:21:31.061Z,1018.3
2022-12-18T20:23:30.936Z,1018.4
2022-12-18T20:25:30.928Z,1018.4
2022-12-18T20:27:30.942Z,1018.5
2022-12-18T20:29:30.923Z,1018.5
2022-12-18T20:31:30.999Z,1018.5
2022-12-18T20:33:30.941Z,1018.5
2022-12-18T20:35:30.925Z,1018.6
2022-12-18T20:37:30.887Z,1018.6
2022-12-18T20:39:30.910Z,1018.6
2022-12-18T20:41:32.807Z,1018.7
2022-12-18T20:43:30.913Z,1018.7
2022-12-18T20:45:30.893Z,1018.7
2022-12-18T20:47:30.907Z,1018.8
2022-12-18T20:49:30.918Z,1018.8
2022-12-18T20:51:30.942Z,1018.8
2022-12-18T20:53:30.936Z,1018.9
2022-12-18T20:55:30.889Z,1018.9
2022-12-18T20:57:30.863Z,1018.9
2022-12-18T20:59:30.956Z,1019
2022-12-18T21:01:31.085Z,1019
2022-12-18T21:03:30.971Z,1019.1
2022-12-18T21:05:30.958Z,1019.1
2022-12-18T21:07:30.923Z,1019.1
2022-12-18T21:09:32.868Z,1019.2
2022-12-18T21:11:30.940Z,1019.2
2022-12-18T21:13:30.886Z,1019.2
2022-12-18T21:15:30.893Z,1019.2
2022-12-18T21:17:30.892Z,1019.3
2022-12-18T21:19:30.882Z,1019.3
2022-12-18T21:21:32.463Z,1019.3
2022-12-18T21:23:30.882Z,1019.4
2022-12-18T21:25:30.978Z,1019.4
2022-12-18T21:27:30.875Z,1019.5
2022-12-18T21:29:30.878Z,1019.5
2022-12-18T21:31:30.920Z,1019.5
2022-12-18T21:33:30.865Z,1019.5
2022-12-18T21:35:32.041Z,1019.6
2022-12-18T21:37:30.866Z,1019.6
2022-12-18T21:39:30.855Z,1019.6
2022-12-18T21:41:30.867Z,1019.7
2022-12-18T21:43:30.875Z,1019.7
2022-12-18T21:45:30.858Z,1019.8
2022-12-18T21:47:30.865Z,1019.8
2022-12-18T21:49:30.852Z,1019.9
2022-12-18T21:51:32.285Z,1019.9
2022-12-18T21:53:30.937Z,1019.9
2022-12-18T21:55:30.845Z,1020
2022-12-18T21:57:30.887Z,1020
2022-12-18T21:59:30.833Z,1020
2022-12-18T22:01:33.410Z,1020.1
2022-12-18T22:03:30.963Z,1020.1
2022-12-18T22:05:30.842Z,1020.1
2022-12-18T22:07:30.871Z,1020.1
2022-12-18T22:09:30.817Z,1020.1
2022-12-18T22:11:30.816Z,1020.2
2022-12-18T22:13:30.826Z,1020.3
2022-12-18T22:15:31.059Z,1020.3
2022-12-18T22:17:30.833Z,1020.4
2022-12-18T22:19:30.851Z,1020.4
2022-12-18T22:21:30.824Z,1020.4
2022-12-18T22:23:30.814Z,1020.4
2022-12-18T22:25:30.824Z,1020.5
2022-12-18T22:27:30.852Z,1020.5
2022-12-18T22:29:30.786Z,1020.5
2022-12-18T22:31:30.875Z,1020.6
2022-12-18T22:33:30.806Z,1020.6
2022-12-18T22:35:30.809Z,1020.7
2022-12-18T22:37:30.792Z,1020.7
2022-12-18T22:39:30.784Z,1020.8
2022-12-18T22:41:30.781Z,1020.8
2022-12-18T22:43:30.793Z,1020.8
2022-12-18T22:45:30.784Z,1020.8
2022-12-18T22:47:30.898Z,1020.9
2022-12-18T22:49:30.825Z,1020.9
2022-12-18T22:51:30.787Z,1021
2022-12-18T22:53:30.763Z,1021
2022-12-18T22:55:30.780Z,1021
2022-12-18T22:57:30.748Z,1021
2022-12-18T22:59:30.766Z,1021.1
2022-12-18T23:01:30.905Z,1021.1
2022-12-18T23:03:30.798Z,1021.1
2022-12-18T23:05:30.765Z,1021.2
2022-12-18T23:07:31.676Z,1021.2
2022-12-18T23:09:30.760Z,1021.3
2022-12-18T23:11:30.748Z,1021.4
2022-12-18T23:13:30.767Z,1021.4
2022-12-18T23:15:30.762Z,1021.4
2022-12-18T23:17:30.742Z,1021.4
2022-12-18T23:19:30.745Z,1021.4
2022-12-18T23:21:30.721Z,1021.4
2022-12-18T23:23:30.746Z,1021.5
2022-12-18T23:25:30.749Z,1021.5
2022-12-18T23:27:30.731Z,1021.6
2022-12-18T23:29:30.750Z,1021.6
2022-12-18T23:31:30.784Z,1021.6
2022-12-18T23:33:30.697Z,1021.7
2022-12-18T23:35:30.714Z,1021.7
2022-12-18T23:37:57.350Z,1021.7
2022-12-18T23:39:30.701Z,1021.7
2022-12-18T23:41:30.726Z,1021.7
2022-12-18T23:43:30.737Z,1021.8
2022-12-18T23:45:30.695Z,1021.8
2022-12-18T23:47:30.706Z,1021.9
2022-12-18T23:49:30.695Z,1021.8
2022-12-18T23:51:30.703Z,1021.9
2022-12-18T23:53:30.736Z,1021.9
2022-12-18T23:55:30.665Z,1021.9
2022-12-18T23:57:30.728Z,1021.9
2022-12-18T23:59:30.716Z,1021.9
